Time;durP1;ratioP1;P1;durP2;ratioP2;P2;SDS_P1;SDS_P2;PMS_P1;PMS_P2;Temp;Humidity;BMP_temperature;BMP_pressure;BME280_temperature;BME280_humidity;BME280_pressure;Samples;Min_cycle;Max_cycle;Signal;HPM_P1;HPM_P2
2023/10/19 00:01:11;;;;;;;13.00;7.38;;;;;;;7.45;83.04;94010.69;5063791;28;20021;-83
2023/10/19 00:03:37;;;;;;;10.73;6.88;;;;;;;7.46;82.63;94014.13;5063777;28;20057;-83
2023/10/19 00:06:02;;;;;;;10.27;7.43;;;;;;;7.49;82.62;94010.88;5063805;28;20028;-78
2023/10/19 00:08:36;;;;;;;10.60;7.20;;;;;;;7.48;82.49;93998.72;5063680;28;20024;-79
2023/10/19 00:11:21;;;;;;;9.43;6.05;;;;;;;7.46;82.66;93995.56;5063729;28;20029;-79
2023/10/19 00:13:49;;;;;;;11.50;7.45;;;;;;;7.43;82.59;93994.28;5061558;28;20040;-79
2023/10/19 00:16:22;;;;;;;10.40;6.80;;;;;;;7.46;82.08;93995.56;5063738;28;20266;-83
2023/10/19 00:18:49;;;;;;;11.93;6.47;;;;;;;7.46;82.21;93990.25;5063525;28;20040;-83
2023/10/19 00:21:23;;;;;;;10.02;6.38;;;;;;;7.44;82.51;93995.84;5063397;28;20024;-83
2023/10/19 00:23:56;;;;;;;10.13;7.15;;;;;;;7.41;82.62;93991.91;5063658;28;20062;-84
2023/10/19 00:26:25;;;;;;;13.90;7.07;;;;;;;7.42;82.51;93988.16;5063444;28;20017;-83
2023/10/19 00:28:55;;;;;;;11.60;7.45;;;;;;;7.40;82.52;93976.28;5062266;28;20031;-83
2023/10/19 00:31:22;;;;;;;9.60;6.60;;;;;;;7.40;82.59;93978.94;5063722;28;20017;-82
2023/10/19 00:33:51;;;;;;;12.02;6.68;;;;;;;7.38;82.53;93981.88;5063493;28;20017;-82
2023/10/19 00:36:20;;;;;;;11.77;6.68;;;;;;;7.35;82.65;93976.38;5063331;28;20195;-82
2023/10/19 00:41:21;;;;;;;10.60;7.22;;;;;;;7.32;82.72;93972.41;5063411;28;20028;-84
2023/10/19 00:43:49;;;;;;;10.35;6.63;;;;;;;7.30;82.70;93969.28;5063077;28;20254;-84
2023/10/19 00:48:58;;;;;;;10.27;6.35;;;;;;;7.30;82.70;93968.50;5063248;28;20387;-84
2023/10/19 00:54:10;;;;;;;;;;;;;;;7.28;82.78;93955.53;5063466;28;20044;-82
2023/10/19 00:56:36;;;;;;;11.20;6.25;;;;;;;7.23;82.77;93958.25;5062874;28;19911;-82
2023/10/19 01:01:55;;;;;;;10.98;6.97;;;;;;;7.17;83.09;93960.19;5046851;28;20037;-82
2023/10/19 01:04:31;;;;;;;15.07;7.30;;;;;;;7.18;83.28;93961.75;5063032;28;20204;-82
2023/10/19 01:07:05;;;;;;;12.07;7.25;;;;;;;7.19;83.30;93962.56;5062711;28;20219;-77
2023/10/19 01:09:35;;;;;;;9.48;6.35;;;;;;;7.18;83.41;93969.72;5062934;28;20040;-77
2023/10/19 01:12:21;;;;;;;9.15;6.15;;;;;;;7.16;83.35;93960.47;5062786;28;20044;-84
2023/10/19 01:15:16;;;;;;;10.07;7.07;;;;;;;7.15;83.53;93965.00;5062548;28;20035;-84
2023/10/19 01:17:44;;;;;;;10.50;6.20;;;;;;;7.19;83.57;93967.88;5062633;28;20045;-84
2023/10/19 01:20:22;;;;;;;10.65;6.80;;;;;;;7.20;83.98;93980.81;5062634;28;20020;-84
2023/10/19 01:31:14;;;;;;;17.65;8.75;;;;;;;7.44;84.59;93964.81;5062627;28;20067;-84
2023/10/19 01:33:41;;;;;;;14.23;8.27;;;;;;;7.46;84.48;93964.53;5062553;28;20033;-84
2023/10/19 01:36:10;;;;;;;17.65;10.27;;;;;;;7.51;84.21;93963.63;5062409;28;20021;-84
2023/10/19 01:38:36;;;;;;;13.15;7.68;;;;;;;7.55;83.95;93969.94;5062441;28;20047;-84
2023/10/19 01:41:13;;;;;;;13.70;8.38;;;;;;;7.59;83.90;93976.22;5062602;28;20016;-84
2023/10/19 01:43:42;;;;;;;12.27;7.10;;;;;;;7.62;83.43;93971.16;5062384;28;20025;-84
2023/10/19 01:46:11;;;;;;;10.38;6.97;;;;;;;7.62;83.31;93970.38;5062408;28;20151;-84
2023/10/19 01:48:44;;;;;;;10.40;6.85;;;;;;;7.64;83.34;93973.50;5062417;28;20191;-81
2023/10/19 01:51:11;;;;;;;11.77;7.18;;;;;;;7.68;83.42;93968.41;5062194;28;20104;-81
2023/10/19 01:53:44;;;;;;;13.77;7.40;;;;;;;7.71;83.48;93973.13;5062333;28;20067;-81
2023/10/19 01:56:14;;;;;;;15.73;8.57;;;;;;;7.77;83.49;93967.44;5062436;28;20087;-81
2023/10/19 01:58:40;;;;;;;11.88;7.43;;;;;;;7.82;83.47;93966.56;5062383;28;20287;-81
2023/10/19 02:01:52;;;;;;;14.52;6.38;;;;;;;7.83;83.45;93973.44;5062477;28;20024;-81
2023/10/19 02:03:58;;;;;;;12.70;6.55;;;;;;;7.87;83.45;93965.69;5051665;28;20101;-81
2023/10/19 02:06:29;;;;;;;13.77;7.78;;;;;;;7.91;83.11;93964.03;5062052;28;20025;-81
2023/10/19 02:08:59;;;;;;;14.02;8.95;;;;;;;7.93;83.37;93969.81;5061910;28;20017;-81
2023/10/19 02:11:26;;;;;;;12.45;7.90;;;;;;;7.96;83.46;93961.28;5062243;28;20044;-81
2023/10/19 02:13:54;;;;;;;18.17;9.30;;;;;;;7.98;83.22;93964.44;5062281;28;20047;-81
2023/10/19 02:16:23;;;;;;;16.90;9.80;;;;;;;7.98;82.89;93965.22;5062233;28;20123;-81
2023/10/19 02:18:50;;;;;;;25.83;12.43;;;;;;;7.97;83.00;93976.91;5062070;28;20368;-82
2023/10/19 02:21:21;;;;;;;30.55;13.15;;;;;;;7.96;82.83;93971.91;5061977;28;20028;-82
2023/10/19 02:23:50;;;;;;;28.90;14.93;;;;;;;7.96;82.66;93974.56;5062124;28;20020;-82
2023/10/19 02:26:16;;;;;;;33.00;14.32;;;;;;;7.95;82.86;93970.31;5061900;28;20051;-82
2023/10/19 02:28:43;;;;;;;26.85;13.43;;;;;;;7.93;82.69;93972.47;5061933;28;20033;-82
2023/10/19 02:31:18;;;;;;;24.30;12.82;;;;;;;7.91;82.62;93970.13;5062067;28;20048;-82
2023/10/19 02:33:45;;;;;;;25.33;12.65;;;;;;;7.89;82.67;93966.19;5062208;28;20021;-82
2023/10/19 02:36:16;;;;;;;22.15;12.88;;;;;;;7.87;82.61;93971.00;5063404;28;20017;-82
2023/10/19 02:38:48;;;;;;;29.60;11.75;;;;;;;7.84;82.35;93970.50;5065443;28;20025;-82
2023/10/19 02:41:15;;;;;;;20.45;11.30;;;;;;;7.80;82.20;93972.16;5065482;28;20067;-82
2023/10/19 02:43:45;;;;;;;25.30;12.70;;;;;;;7.75;82.39;93977.56;5065362;28;20118;-82
2023/10/19 02:46:13;;;;;;;23.23;12.82;;;;;;;7.70;82.81;93955.66;5065157;28;20191;-82
2023/10/19 02:48:38;;;;;;;24.40;11.57;;;;;;;7.67;82.84;93966.81;5065303;28;20368;-81
2023/10/19 02:51:10;;;;;;;25.65;12.32;;;;;;;7.62;83.09;93973.78;5065196;28;20160;-81
2023/10/19 02:53:38;;;;;;;24.55;12.65;;;;;;;7.61;83.02;93968.78;5065157;28;20020;-83
2023/10/19 02:56:10;;;;;;;21.65;11.13;;;;;;;7.57;82.96;93968.59;5063981;28;20013;-83
2023/10/19 02:58:36;;;;;;;20.17;11.13;;;;;;;7.55;82.88;93961.97;5065141;28;20036;-83
2023/10/19 03:01:02;;;;;;;20.27;10.88;;;;;;;7.52;82.93;93965.22;5064968;28;20021;-83
2023/10/19 03:03:30;;;;;;;18.02;9.77;;;;;;;7.52;83.14;93959.91;5065114;28;20017;-83
2023/10/19 03:05:59;;;;;;;20.02;11.55;;;;;;;7.49;82.89;93955.19;5065108;28;20024;-83
2023/10/19 03:08:26;;;;;;;17.33;10.20;;;;;;;7.46;82.74;93955.78;5064817;28;20025;-81
2023/10/19 03:11:03;;;;;;;20.90;9.35;;;;;;;7.42;82.87;93959.00;5064820;28;20338;-82
2023/10/19 03:13:29;;;;;;;20.38;10.93;;;;;;;7.39;82.83;93956.94;5063738;28;20013;-81
2023/10/19 03:15:54;;;;;;;21.13;10.10;;;;;;;7.36;82.70;93952.22;5064841;28;20009;-82
2023/10/19 03:18:20;;;;;;;17.50;9.80;;;;;;;7.36;82.61;93946.13;5063795;28;20103;-82
2023/10/19 03:20:45;;;;;;;18.80;11.27;;;;;;;7.32;82.50;93956.50;5065025;28;20027;-82
2023/10/19 03:23:10;;;;;;;18.73;10.90;;;;;;;7.30;82.50;93957.88;5064481;28;20028;-81
2023/10/19 03:28:20;;;;;;;22.25;10.82;;;;;;;7.24;82.68;93959.81;5064773;28;20032;-82
2023/10/19 03:30:47;;;;;;;19.08;10.93;;;;;;;7.23;83.00;93958.25;5063471;28;20024;-82
2023/10/19 03:33:12;;;;;;;18.40;10.48;;;;;;;7.23;82.85;93959.03;5064438;28;20264;-82
2023/10/19 03:35:41;;;;;;;19.52;11.27;;;;;;;7.17;82.80;93959.41;5063216;28;20024;-82
2023/10/19 03:38:14;;;;;;;22.38;11.52;;;;;;;7.11;82.71;93957.91;5064397;28;20020;-82
2023/10/19 03:40:41;;;;;;;17.35;10.82;;;;;;;7.06;82.99;93952.69;5064378;28;20017;-82
2023/10/19 03:43:16;;;;;;;17.33;9.07;;;;;;;7.05;82.53;93951.91;5064343;28;20100;-77
2023/10/19 03:45:48;;;;;;;21.88;10.68;;;;;;;7.01;82.35;93951.69;5064166;28;20057;-77
2023/10/19 03:48:16;;;;;;;17.35;10.52;;;;;;;6.98;82.54;93956.75;5063072;28;20033;-78
2023/10/19 03:50:42;;;;;;;17.23;11.20;;;;;;;6.93;82.97;93939.09;5064193;28;20059;-77
2023/10/19 03:53:12;;;;;;;15.88;10.05;;;;;;;6.90;83.55;93936.22;5064256;28;20054;-77
2023/10/19 03:55:38;;;;;;;21.25;11.00;;;;;;;6.89;83.51;93932.78;5064006;28;20025;-78
2023/10/19 03:58:04;;;;;;;16.73;10.82;;;;;;;6.91;83.50;93933.28;5063916;28;20029;-77
2023/10/19 04:00:33;;;;;;;22.88;10.52;;;;;;;6.92;83.29;93932.22;5064032;28;20024;-79
2023/10/19 04:02:58;;;;;;;18.25;10.52;;;;;;;6.87;83.35;93934.16;5063940;28;20028;-80
2023/10/19 04:05:25;;;;;;;18.42;10.38;;;;;;;6.88;83.65;93936.53;5063705;28;20092;-79
2023/10/19 04:08:00;;;;;;;16.17;10.63;;;;;;;6.87;84.02;93929.63;5064054;28;20062;-80
2023/10/19 04:13:00;;;;;;;21.05;10.18;;;;;;;6.84;83.33;93940.81;5063539;28;20017;-78
2023/10/19 04:15:26;;;;;;;17.85;9.48;;;;;;;6.81;82.94;93946.69;5063773;28;20096;-78
2023/10/19 04:17:58;;;;;;;14.02;9.10;;;;;;;6.82;83.18;93942.97;5063883;28;20037;-78
2023/10/19 04:20:42;;;;;;;16.23;10.40;;;;;;;6.76;82.77;93944.91;5063457;28;20096;-79
2023/10/19 04:23:10;;;;;;;19.77;10.90;;;;;;;6.70;83.81;93932.81;5063606;28;20021;-78
2023/10/19 04:25:36;;;;;;;17.30;9.25;;;;;;;6.71;84.00;93944.97;5063241;28;20309;-78
2023/10/19 04:28:03;;;;;;;15.40;10.02;;;;;;;6.69;84.08;93936.50;5063273;28;20025;-78
2023/10/19 04:30:29;;;;;;;16.92;9.73;;;;;;;6.66;84.11;93937.09;5063442;28;20028;-80
2023/10/19 04:32:57;;;;;;;19.90;11.13;;;;;;;6.67;84.21;93935.22;5063315;28;20021;-80
2023/10/19 04:35:24;;;;;;;16.35;10.90;;;;;;;6.62;84.48;93930.78;5063219;28;20272;-80
2023/10/19 04:37:53;;;;;;;20.70;10.48;;;;;;;6.64;84.71;93926.00;5063479;28;20017;-78
2023/10/19 04:40:23;;;;;;;17.10;10.35;;;;;;;6.65;84.58;93929.44;5062470;28;20100;-78
2023/10/19 04:42:50;;;;;;;23.80;12.60;;;;;;;6.67;85.24;93929.94;5063332;28;20021;-78
2023/10/19 04:45:15;;;;;;;22.85;11.40;;;;;;;6.62;85.56;93928.16;5063019;28;20020;-82
2023/10/19 04:47:41;;;;;;;24.38;12.77;;;;;;;6.63;85.49;93930.53;5062052;28;20062;-81
2023/10/19 04:50:07;;;;;;;26.77;12.80;;;;;;;6.66;85.67;93928.38;5063026;28;20021;-81
2023/10/19 04:52:33;;;;;;;24.50;11.27;;;;;;;6.72;85.49;93928.00;5063029;28;20016;-81
2023/10/19 04:54:59;;;;;;;28.40;14.10;;;;;;;6.77;85.66;93913.91;5061695;28;20021;-81
2023/10/19 04:57:25;;;;;;;23.88;12.50;;;;;;;6.81;85.90;93918.31;5061840;28;20031;-81
2023/10/19 04:59:51;;;;;;;26.40;12.48;;;;;;;6.89;85.70;93921.41;5063018;28;20024;-82
2023/10/19 05:02:17;;;;;;;28.38;13.93;;;;;;;6.92;85.68;93920.81;5062774;28;20017;-82
2023/10/19 05:04:43;;;;;;;39.40;14.38;;;;;;;6.97;85.69;93913.59;5062926;28;20119;-82
2023/10/19 05:07:14;;;;;;;33.55;16.33;;;;;;;7.05;85.67;93921.97;5062882;28;20021;-78
2023/10/19 05:09:40;;;;;;;41.10;17.20;;;;;;;7.11;86.04;93918.16;5061652;28;20016;-77
2023/10/19 05:12:09;;;;;;;36.95;16.95;;;;;;;7.13;86.17;93919.44;5062774;28;20074;-78
2023/10/19 05:14:41;;;;;;;58.60;18.60;;;;;;;7.19;86.11;93925.47;5062757;28;20029;-78
2023/10/19 05:17:08;;;;;;;;;;;;;;;7.21;86.28;93924.09;5063034;28;20219;-78
2023/10/19 05:19:35;;;;;;;39.92;18.73;;;;;;;7.15;86.95;93929.75;5062799;28;19913;-77
2023/10/19 05:22:02;;;;;;;49.22;17.95;;;;;;;7.18;87.54;93924.66;5062672;28;20025;-77
2023/10/19 05:24:27;;;;;;;70.75;18.95;;;;;;;7.25;87.88;93928.81;5062398;28;20092;-75
2023/10/19 05:26:53;;;;;;;116.10;18.50;;;;;;;7.27;87.85;93924.78;5062365;28;20033;-75
2023/10/19 05:29:20;;;;;;;37.88;17.25;;;;;;;7.35;87.90;93923.34;5062579;28;20029;-76
2023/10/19 05:31:45;;;;;;;35.38;18.40;;;;;;;7.44;87.80;93917.06;5062283;28;20029;-76
2023/10/19 05:34:11;;;;;;;37.60;19.60;;;;;;;7.50;87.38;93932.91;5062378;28;20094;-76
2023/10/19 05:36:36;;;;;;;38.30;19.20;;;;;;;7.55;87.31;93924.84;5062315;28;20273;-76
2023/10/19 05:39:03;;;;;;;46.30;20.52;;;;;;;7.61;86.98;93931.63;5062402;28;20033;-76
2023/10/19 05:41:31;;;;;;;46.83;19.30;;;;;;;7.69;86.89;93941.56;5062365;28;20391;-77
2023/10/19 05:43:56;;;;;;;54.22;22.75;;;;;;;7.75;86.88;93947.59;5062466;28;20322;-79
2023/10/19 05:46:24;;;;;;;52.47;24.08;;;;;;;7.78;86.80;93947.00;5062395;28;20040;-78
2023/10/19 05:48:50;;;;;;;50.92;24.10;;;;;;;7.74;86.88;93946.81;5062519;28;20021;-78
2023/10/19 05:51:17;;;;;;;46.17;23.17;;;;;;;7.73;87.03;93953.19;5060884;28;20017;-77
2023/10/19 05:53:44;;;;;;;49.83;23.63;;;;;;;7.76;87.53;93946.53;5062068;28;20479;-76
2023/10/19 05:56:10;;;;;;;75.70;25.70;;;;;;;7.78;87.39;93947.78;5062167;28;20017;-76
2023/10/19 05:58:36;;;;;;;54.60;22.55;;;;;;;7.78;87.27;93950.44;5062148;28;20021;-73
2023/10/19 06:01:01;;;;;;;81.82;22.67;;;;;;;7.85;87.48;93942.09;5062167;28;20043;-74
2023/10/19 06:03:26;;;;;;;51.13;21.20;;;;;;;7.87;87.10;93941.81;5061907;28;20215;-73
2023/10/19 06:05:56;;;;;;;47.47;22.73;;;;;;;7.92;87.37;93941.72;5061974;28;20045;-74
2023/10/19 06:08:24;;;;;;;47.40;24.08;;;;;;;8.02;87.57;93944.19;5062246;28;20028;-74
2023/10/19 06:10:53;;;;;;;48.40;22.52;;;;;;;8.14;86.97;93955.09;5063176;28;20215;-74
2023/10/19 06:13:19;;;;;;;56.10;23.45;;;;;;;8.24;86.21;93941.63;5066420;28;20688;-74
2023/10/19 06:15:44;;;;;;;40.50;22.02;;;;;;;8.30;85.60;93955.56;5066062;28;20231;-74
2023/10/19 06:18:10;;;;;;;45.95;22.52;;;;;;;8.37;85.73;93945.34;5065734;28;20140;-74
2023/10/19 06:20:36;;;;;;;50.42;24.63;;;;;;;8.44;85.41;93948.41;5065693;28;20401;-74
2023/10/19 06:23:05;;;;;;;47.38;22.65;;;;;;;8.50;85.63;93940.34;5065694;28;20048;-73
2023/10/19 06:25:34;;;;;;;46.85;22.48;;;;;;;8.54;85.59;93947.44;5065546;28;20028;-73
2023/10/19 06:28:01;;;;;;;50.00;22.63;;;;;;;8.62;84.33;93948.59;5065718;28;20028;-74
2023/10/19 06:30:27;;;;;;;46.20;22.65;;;;;;;8.63;84.15;93940.34;5065795;28;20219;-72
2023/10/19 06:33:00;;;;;;;44.90;23.73;;;;;;;8.67;84.18;93940.53;5065619;28;20095;-75
2023/10/19 06:35:28;;;;;;;44.60;21.50;;;;;;;8.76;84.42;93943.25;5065630;28;20048;-82
2023/10/19 06:37:54;;;;;;;41.67;22.08;;;;;;;8.91;84.18;93948.22;5065748;28;20029;-84
2023/10/19 06:40:21;;;;;;;32.72;19.00;;;;;;;9.04;83.94;93944.75;5065705;28;20029;-83
2023/10/19 06:42:49;;;;;;;41.22;19.58;;;;;;;9.23;83.24;93951.78;5065464;28;20067;-80
2023/10/19 06:45:15;;;;;;;34.28;17.67;;;;;;;9.36;82.77;93945.63;5065121;28;20036;-80
2023/10/19 06:47:45;;;;;;;30.17;15.63;;;;;;;9.51;81.46;93944.47;5065414;28;20223;-80
2023/10/19 06:50:12;;;;;;;31.95;15.10;;;;;;;9.68;80.68;93943.00;5065449;28;20020;-79
2023/10/19 06:52:39;;;;;;;26.63;14.95;;;;;;;9.83;80.12;93942.59;5065353;28;20048;-81
2023/10/19 06:55:05;;;;;;;22.08;12.32;;;;;;;9.88;77.38;93945.13;5065213;28;20037;-81
2023/10/19 06:57:34;;;;;;;25.48;12.88;;;;;;;9.99;77.19;93935.00;5065266;28;20029;-81
2023/10/19 07:00:10;;;;;;;24.90;13.60;;;;;;;10.12;77.25;93930.69;5065154;28;20044;-80
2023/10/19 07:02:35;;;;;;;28.67;13.93;;;;;;;10.29;76.52;93914.72;5065093;28;20025;-80
2023/10/19 07:05:02;;;;;;;25.05;13.02;;;;;;;10.48;76.12;93930.47;5065380;28;20044;-79
2023/10/19 07:07:27;;;;;;;32.47;14.93;;;;;;;10.62;75.85;93925.03;5064963;28;20024;-79
2023/10/19 07:09:53;;;;;;;29.52;12.50;;;;;;;10.77;75.01;93924.59;5065021;28;20020;-79
2023/10/19 07:12:18;;;;;;;21.08;9.52;;;;;;;10.83;73.98;93941.22;5064721;28;20242;-80
2023/10/19 07:14:44;;;;;;;18.85;9.23;;;;;;;10.88;72.52;93941.06;5064787;28;20031;-81
2023/10/19 07:17:09;;;;;;;22.08;11.27;;;;;;;10.94;72.14;93941.69;5064535;28;20302;-80
2023/10/19 07:19:34;;;;;;;20.27;9.00;;;;;;;10.94;71.42;93945.16;5064833;28;20020;-81
2023/10/19 07:22:04;;;;;;;12.40;7.60;;;;;;;10.90;71.16;93938.09;5064661;28;20387;-80
2023/10/19 07:24:29;;;;;;;14.23;6.80;;;;;;;10.97;70.59;93941.88;5064710;28;20043;-80
2023/10/19 07:27:03;;;;;;;12.52;6.97;;;;;;;11.03;70.04;93934.47;5064706;28;20017;-80
2023/10/19 07:29:30;;;;;;;10.55;6.30;;;;;;;11.15;69.25;93933.84;5064731;28;20021;-85
2023/10/19 07:31:58;;;;;;;19.42;6.22;;;;;;;11.27;68.89;93934.00;5063294;28;20298;-81
2023/10/19 07:34:27;;;;;;;18.25;6.97;;;;;;;11.45;68.86;93932.09;5064573;28;20045;-81
2023/10/19 07:36:54;;;;;;;18.08;7.90;;;;;;;11.57;68.59;93940.25;5064458;28;20353;-80
2023/10/19 07:39:20;;;;;;;12.93;7.32;;;;;;;11.75;67.27;93945.56;5064551;28;20059;-78
2023/10/19 07:41:46;;;;;;;12.18;6.45;;;;;;;11.78;67.23;93936.91;5064115;28;20021;-78
2023/10/19 07:44:12;;;;;;;10.82;6.72;;;;;;;11.83;66.96;93944.75;5064359;28;20020;-78
2023/10/19 07:46:37;;;;;;;11.00;6.65;;;;;;;11.90;67.32;93945.06;5063069;28;20195;-77
2023/10/19 07:49:03;;;;;;;13.90;6.72;;;;;;;11.96;67.12;93949.13;5063183;28;20226;-77
2023/10/19 07:51:30;;;;;;;10.27;7.25;;;;;;;11.81;66.26;93945.06;5063951;28;20021;-78
2023/10/19 07:53:56;;;;;;;18.13;7.43;;;;;;;11.61;67.40;93945.75;5064328;28;20040;-78
2023/10/19 07:56:23;;;;;;;18.40;8.52;;;;;;;11.50;68.27;93949.84;5063060;28;20327;-79
2023/10/19 07:58:49;;;;;;;19.50;7.78;;;;;;;11.34;68.58;93945.00;5063051;28;20021;-77
2023/10/19 08:01:15;;;;;;;13.10;7.60;;;;;;;11.17;69.13;93953.00;5064053;28;20039;-78
2023/10/19 08:03:40;;;;;;;16.77;9.18;;;;;;;10.89;70.20;93953.31;5062868;28;20029;-79
2023/10/19 08:06:06;;;;;;;15.90;9.13;;;;;;;10.79;70.48;93951.72;5063753;28;20032;-78
2023/10/19 08:08:35;;;;;;;19.27;9.23;;;;;;;10.60;71.53;93953.88;5063932;28;20091;-79
2023/10/19 08:11:00;;;;;;;15.18;9.50;;;;;;;10.59;72.08;93949.66;5063677;28;20020;-78
2023/10/19 08:13:27;;;;;;;20.05;9.18;;;;;;;10.64;72.13;93950.28;5063570;28;20131;-79
2023/10/19 08:15:52;;;;;;;17.70;9.75;;;;;;;10.70;71.54;93952.78;5063832;28;20184;-79
2023/10/19 08:18:18;;;;;;;16.20;10.00;;;;;;;10.71;71.27;93933.06;5062440;28;20044;-79
2023/10/19 08:20:49;;;;;;;19.33;9.48;;;;;;;10.77;71.46;93945.13;5063564;28;20032;-79
2023/10/19 08:23:16;;;;;;;16.13;9.23;;;;;;;10.79;71.27;93945.59;5063715;28;20091;-79
2023/10/19 08:25:46;;;;;;;22.55;10.50;;;;;;;10.94;71.25;93942.47;5063416;28;20037;-78
2023/10/19 08:28:11;;;;;;;18.27;10.45;;;;;;;11.00;71.15;93949.22;5062278;28;20017;-79
2023/10/19 08:30:37;;;;;;;22.40;10.43;;;;;;;11.06;70.99;93947.19;5063566;28;20024;-82
2023/10/19 08:33:03;;;;;;;17.25;9.75;;;;;;;11.13;70.73;93947.50;5063385;28;20025;-80
2023/10/19 08:35:30;;;;;;;20.67;10.70;;;;;;;11.23;70.58;93949.88;5063352;28;20012;-81
2023/10/19 08:38:00;;;;;;;19.15;9.55;;;;;;;11.41;70.37;93949.84;5063302;28;20017;-80
2023/10/19 08:40:27;;;;;;;19.10;10.55;;;;;;;11.56;68.79;93948.56;5063274;28;20096;-79
2023/10/19 08:42:55;;;;;;;18.88;10.30;;;;;;;11.52;68.38;93944.97;5063234;28;20021;-81
2023/10/19 08:45:24;;;;;;;15.68;9.85;;;;;;;11.65;68.06;93946.69;5063208;28;20079;-79
2023/10/19 08:47:53;;;;;;;16.42;9.50;;;;;;;11.76;67.81;93949.78;5063602;28;20028;-79
2023/10/19 08:50:23;;;;;;;14.18;9.10;;;;;;;11.92;67.48;93942.09;5062226;28;20075;-85
2023/10/19 08:52:53;;;;;;;17.20;10.02;;;;;;;12.10;67.78;93938.25;5063217;28;20024;-81
2023/10/19 08:55:22;;;;;;;15.68;10.05;;;;;;;12.29;67.59;93937.06;5063576;28;20021;-83
2023/10/19 08:57:52;;;;;;;16.15;9.35;;;;;;;12.45;65.62;93930.84;5063523;28;20126;-85
2023/10/19 09:00:19;;;;;;;16.35;9.55;;;;;;;12.53;65.62;93939.16;5062196;28;20096;-79
2023/10/19 09:02:47;;;;;;;12.85;8.20;;;;;;;12.64;65.18;93943.81;5062891;28;20028;-79
2023/10/19 09:05:22;;;;;;;11.70;7.93;;;;;;;12.75;65.02;93944.22;5062960;28;20063;-80
2023/10/19 09:07:54;;;;;;;12.70;7.68;;;;;;;12.95;64.29;93929.31;5063011;28;20020;-79
2023/10/19 09:10:25;;;;;;;18.00;8.90;;;;;;;13.16;63.81;93933.88;5063141;28;20021;-78
2023/10/19 09:13:22;;;;;;;11.93;8.03;;;;;;;13.35;62.66;93930.75;5061905;28;20116;-78
2023/10/19 09:15:53;;;;;;;15.63;8.35;;;;;;;13.51;61.96;93914.88;5054243;28;20260;-81
2023/10/19 09:18:24;;;;;;;12.70;6.57;;;;;;;13.70;61.12;93919.72;5062845;28;20192;-79
2023/10/19 09:20:53;;;;;;;13.60;7.70;;;;;;;13.69;59.68;93902.09;5062968;28;20082;-80
2023/10/19 09:23:25;;;;;;;15.18;7.82;;;;;;;13.77;60.39;93896.63;5061615;28;20188;-82
2023/10/19 09:25:52;;;;;;;15.85;6.85;;;;;;;13.92;59.72;93905.16;5062618;28;20327;-77
2023/10/19 09:28:18;;;;;;;24.83;9.40;;;;;;;14.00;59.72;93901.59;5061594;28;20338;-78
2023/10/19 09:30:44;;;;;;;18.83;9.10;;;;;;;14.09;60.18;93891.56;5062573;28;20021;-78
2023/10/19 09:33:10;;;;;;;20.85;7.95;;;;;;;14.18;59.13;93897.59;5062581;28;20062;-81
2023/10/19 09:35:38;;;;;;;19.10;9.05;;;;;;;14.35;58.50;93890.44;5062688;28;20100;-78
2023/10/19 09:38:06;;;;;;;21.88;9.95;;;;;;;14.47;58.38;93879.72;5061390;28;20253;-77
2023/10/19 09:40:33;;;;;;;28.55;10.25;;;;;;;14.55;58.37;93889.56;5062509;28;20029;-78
2023/10/19 09:43:03;;;;;;;17.98;8.05;;;;;;;14.62;57.77;93880.97;5061915;28;20021;-88
2023/10/19 09:45:31;;;;;;;14.27;7.35;;;;;;;14.71;56.95;93886.97;5062065;28;20096;-84
2023/10/19 09:48:01;;;;;;;15.95;7.97;;;;;;;14.81;57.18;93883.06;5064640;28;20059;-85
2023/10/19 09:50:27;;;;;;;12.18;6.78;;;;;;;14.92;56.89;93876.09;5063452;28;20017;-86
2023/10/19 09:52:54;;;;;;;14.98;6.85;;;;;;;15.06;56.62;93870.34;5064520;28;20024;-84
2023/10/19 09:55:28;;;;;;;12.75;6.85;;;;;;;15.15;56.93;93873.69;5064745;28;20005;-84
2023/10/19 09:57:58;;;;;;;12.80;6.53;;;;;;;15.27;55.84;93878.22;5064659;28;20028;-84
2023/10/19 10:00:24;;;;;;;14.05;6.03;;;;;;;15.38;55.66;93875.81;5064455;28;20040;-84
2023/10/19 10:02:51;;;;;;;11.05;6.78;;;;;;;15.44;55.15;93864.47;5066049;28;20020;-84
2023/10/19 10:05:35;;;;;;;8.80;5.40;;;;;;;15.41;54.56;93865.19;5064166;28;20323;-84
2023/10/19 10:08:18;;;;;;;9.85;5.60;;;;;;;15.44;54.45;93864.47;5063059;28;20369;-85
2023/10/19 10:10:49;;;;;;;11.23;6.43;;;;;;;15.31;53.93;93859.53;5062917;28;20021;-84
2023/10/19 10:13:23;;;;;;;12.50;6.72;;;;;;;15.10;53.61;93865.88;5063591;28;20021;-84
2023/10/19 10:15:52;;;;;;;13.38;6.53;;;;;;;14.87;55.21;93867.50;5063431;28;20038;-84
2023/10/19 10:18:17;;;;;;;13.85;6.75;;;;;;;14.88;55.90;93864.50;5062071;28;20060;-84
2023/10/19 10:20:43;;;;;;;10.70;6.88;;;;;;;14.85;55.01;93857.88;5062762;28;20091;-85
2023/10/19 10:23:17;;;;;;;9.23;6.85;;;;;;;14.80;55.60;93849.31;5063490;28;20266;-84
2023/10/19 10:25:48;;;;;;;12.25;7.30;;;;;;;14.75;56.07;93844.94;5063407;28;20140;-85
2023/10/19 10:28:14;;;;;;;12.70;7.63;;;;;;;14.78;55.89;93846.19;5064743;28;20059;-85
2023/10/19 10:31:18;;;;;;;10.65;6.78;;;;;;;14.84;56.66;93834.09;5064506;28;20197;-84
2023/10/19 10:33:45;;;;;;;12.63;7.03;;;;;;;14.92;57.46;93827.81;5064195;28;20033;-84
2023/10/19 10:36:12;;;;;;;20.05;7.68;;;;;;;15.01;55.67;93830.34;5064547;28;20032;-85
2023/10/19 10:38:38;;;;;;;18.70;7.40;;;;;;;15.03;56.26;93826.19;5064328;28;20152;-84
2023/10/19 10:41:03;;;;;;;18.52;7.22;;;;;;;15.09;56.26;93805.25;5064299;28;20032;-85
2023/10/19 10:43:29;;;;;;;14.75;9.38;;;;;;;15.14;55.95;93807.69;5064584;28;20025;-85
2023/10/19 10:46:08;;;;;;;12.35;7.60;;;;;;;15.27;57.10;93805.72;5063110;28;20044;-84
2023/10/19 10:48:40;;;;;;;17.17;7.60;;;;;;;15.42;57.10;93793.44;5064213;28;20025;-84
2023/10/19 10:51:15;;;;;;;15.27;7.18;;;;;;;15.58;56.54;93788.88;5064351;28;20032;-84
2023/10/19 10:53:41;;;;;;;10.65;6.53;;;;;;;15.73;56.02;93786.56;5063151;28;20124;-84
2023/10/19 10:56:06;;;;;;;12.15;6.20;;;;;;;15.87;55.68;93783.44;5064091;28;20195;-84
2023/10/19 10:58:32;;;;;;;15.43;6.30;;;;;;;16.00;54.82;93792.97;5064203;28;20032;-85
2023/10/19 11:00:57;;;;;;;21.75;7.75;;;;;;;16.12;55.03;93779.44;5064134;28;20020;-85
2023/10/19 11:03:24;;;;;;;9.77;6.47;;;;;;;16.30;54.76;93779.03;5064152;28;20031;-84
2023/10/19 11:05:49;;;;;;;12.15;6.38;;;;;;;16.48;54.26;93763.28;5063074;28;20055;-85
2023/10/19 11:08:21;;;;;;;15.43;6.20;;;;;;;16.63;53.10;93757.09;5063946;28;20025;-85
2023/10/19 11:10:47;;;;;;;11.77;5.63;;;;;;;16.75;52.33;93756.13;5064128;28;20105;-85
2023/10/19 11:13:15;;;;;;;9.63;4.88;;;;;;;16.85;50.53;93747.53;5063931;28;20290;-85
2023/10/19 11:15:51;;;;;;;13.68;5.07;;;;;;;16.86;50.41;93751.78;5062601;28;20096;-85
2023/10/19 11:18:37;;;;;;;8.75;4.32;;;;;;;16.94;51.11;93737.34;5019637;28;1272086;-85
2023/10/19 11:21:07;;;;;;;8.23;5.22;;;;;;;17.03;49.93;93734.41;5065070;28;20024;-85
2023/10/19 11:23:39;;;;;;;8.48;4.90;;;;;;;17.09;49.52;93742.97;5064932;28;20025;-85
2023/10/19 11:26:07;;;;;;;7.47;4.35;;;;;;;17.14;50.11;93742.69;5064646;28;20028;-85
2023/10/19 11:28:33;;;;;;;10.93;5.00;;;;;;;17.20;49.54;93727.81;5064612;28;20048;-85
2023/10/19 11:31:13;;;;;;;10.43;5.47;;;;;;;17.32;50.32;93724.94;5064754;28;20032;-85
2023/10/19 11:33:38;;;;;;;16.15;4.93;;;;;;;17.51;51.38;93731.41;5064695;28;20219;-85
2023/10/19 11:36:04;;;;;;;8.07;4.50;;;;;;;17.71;50.23;93721.31;5063370;28;20020;-86
2023/10/19 11:38:30;;;;;;;7.35;3.78;;;;;;;17.88;50.28;93706.59;5064762;28;20254;-85
2023/10/19 11:40:56;;;;;;;12.35;5.10;;;;;;;18.00;48.35;93711.78;5064383;28;20108;-85
2023/10/19 11:43:21;;;;;;;10.95;4.82;;;;;;;17.98;48.39;93709.44;5064653;28;20084;-85
2023/10/19 11:45:47;;;;;;;8.57;4.53;;;;;;;18.14;49.65;93698.50;5064294;28;20025;-85
2023/10/19 11:48:12;;;;;;;9.63;4.50;;;;;;;18.32;49.42;93706.03;5063891;28;20074;-85
2023/10/19 11:50:37;;;;;;;11.63;4.45;;;;;;;18.44;47.59;93698.50;5063401;28;20051;-85
2023/10/19 11:53:03;;;;;;;9.35;4.32;;;;;;;18.57;47.57;93704.44;5063146;28;20215;-85
2023/10/19 11:55:29;;;;;;;11.20;4.53;;;;;;;18.70;47.44;93698.81;5064394;28;20242;-85
2023/10/19 11:57:54;;;;;;;7.60;4.97;;;;;;;18.78;47.75;93703.16;5064264;28;20017;-85